Time;durP1;ratioP1;P1;durP2;ratioP2;P2;SDS_P1;SDS_P2;PMS_P1;PMS_P2;Temp;Humidity;BMP_temperature;BMP_pressure;BME280_temperature;BME280_humidity;BME280_pressure;Samples;Min_cycle;Max_cycle;Signal;HPM_P1;HPM_P2
2022/01/31 00:02:10;;;;;;;65.05;20.67;;;;;;;-0.19;100.00;93006.28;5028962;28;20045;-86
2022/01/31 00:04:37;;;;;;;64.35;16.70;;;;;;;-0.06;100.00;93028.63;5029388;28;20057;-87
2022/01/31 00:07:04;;;;;;;67.85;21.35;;;;;;;-0.56;100.00;92960.16;5027882;28;20052;-87
2022/01/31 00:09:31;;;;;;;56.42;17.10;;;;;;;-0.56;100.00;92945.03;5027843;28;20511;-88
2022/01/31 00:12:03;;;;;;;58.90;17.73;;;;;;;-0.06;100.00;93021.03;5028248;28;20053;-87
2022/01/31 00:14:37;;;;;;;55.17;18.50;;;;;;;-0.07;100.00;93029.56;5028140;28;20445;-90
2022/01/31 00:17:05;;;;;;;41.22;14.70;;;;;;;-0.60;100.00;92935.38;5027907;28;20049;-89
2022/01/31 00:19:34;;;;;;;52.88;17.23;;;;;;;0.04;100.00;93025.22;5027819;28;20045;-87
2022/01/31 00:22:01;;;;;;;54.47;19.40;;;;;;;-0.64;100.00;92919.75;5027977;28;20139;-86
2022/01/31 00:24:27;;;;;;;44.03;17.55;;;;;;;0.26;100.00;93022.16;5027938;28;20053;-87
2022/01/31 00:26:54;;;;;;;60.33;21.55;;;;;;;0.35;100.00;93034.81;5027929;28;20045;-87
2022/01/31 00:29:23;;;;;;;54.60;21.95;;;;;;;-0.35;100.00;92938.03;5027386;28;20054;-86
2022/01/31 00:31:50;;;;;;;68.13;22.55;;;;;;;-0.23;100.00;92953.75;5027569;28;20141;-86
2022/01/31 00:34:17;;;;;;;64.65;25.55;;;;;;;0.26;100.00;93023.88;5027927;28;20057;-86
2022/01/31 00:36:44;;;;;;;61.30;22.83;;;;;;;-0.15;100.00;92959.63;5027306;28;20417;-86
2022/01/31 00:39:11;;;;;;;67.97;25.27;;;;;;;0.03;100.00;92980.66;5027715;28;20045;-86
2022/01/31 00:41:38;;;;;;;81.78;29.95;;;;;;;0.36;100.00;93023.75;5027432;28;20420;-86
2022/01/31 00:44:17;;;;;;;73.65;27.33;;;;;;;0.24;100.00;93005.56;5027706;28;20061;-86
2022/01/31 00:46:50;;;;;;;58.00;22.38;;;;;;;0.45;100.00;93037.22;5038816;28;20561;-86
2022/01/31 00:49:27;;;;;;;72.53;28.50;;;;;;;-0.06;100.00;92973.06;5038937;28;20049;-85
2022/01/31 00:51:54;;;;;;;61.05;24.30;;;;;;;-0.35;100.00;92940.56;5027831;28;20527;-87
2022/01/31 00:54:21;;;;;;;44.20;13.45;;;;;;;-0.44;100.00;92972.53;5027662;28;20505;-87
2022/01/31 00:56:48;;;;;;;51.30;13.57;;;;;;;-0.55;100.00;92958.44;5031013;28;20041;-86
2022/01/31 00:59:18;;;;;;;47.40;12.65;;;;;;;0.02;100.00;93049.81;5030621;28;20586;-85
2022/01/31 01:01:47;;;;;;;32.28;9.13;;;;;;;-0.37;100.00;93030.78;5028719;28;20378;-85
2022/01/31 01:04:20;;;;;;;29.67;9.27;;;;;;;-1.27;100.00;92903.84;5031115;28;20468;-85
2022/01/31 01:06:47;;;;;;;24.83;8.68;;;;;;;-0.32;100.00;93021.03;5031335;28;20152;-85
2022/01/31 01:09:16;;;;;;;33.25;8.35;;;;;;;-0.39;100.00;93046.06;5030937;28;20068;-85
2022/01/31 01:11:43;;;;;;;18.40;6.10;;;;;;;-0.94;100.00;92967.13;5029792;28;20096;-86
2022/01/31 01:14:10;;;;;;;18.05;6.43;;;;;;;-0.29;100.00;93040.94;5030525;28;20075;-86
2022/01/31 01:16:37;;;;;;;19.52;6.63;;;;;;;-0.78;100.00;92984.16;5030921;28;20095;-85
2022/01/31 01:19:05;;;;;;;17.73;6.38;;;;;;;-0.38;100.00;93037.56;5030654;28;20501;-84
2022/01/31 01:21:32;;;;;;;13.93;4.30;;;;;;;-0.71;100.00;93004.50;5031070;28;20045;-85
2022/01/31 01:23:59;;;;;;;16.08;5.10;;;;;;;-0.49;100.00;93032.75;5031035;28;20053;-84
2022/01/31 01:26:26;;;;;;;12.55;4.30;;;;;;;-0.75;100.00;93005.75;5030970;28;20390;-84
2022/01/31 01:28:53;;;;;;;8.13;3.83;;;;;;;-0.66;100.00;93009.13;5030658;28;20505;-84
2022/01/31 01:31:19;;;;;;;13.52;4.20;;;;;;;-0.28;100.00;93034.94;5030850;28;20045;-84
2022/01/31 01:33:46;;;;;;;13.93;4.63;;;;;;;-0.25;100.00;93041.41;5030754;28;20452;-84
2022/01/31 01:36:14;;;;;;;19.20;5.53;;;;;;;-0.16;100.00;93035.50;5030830;28;20056;-84
2022/01/31 01:38:41;;;;;;;23.42;7.57;;;;;;;-0.08;100.00;93038.09;5030236;28;20057;-84
2022/01/31 01:41:08;;;;;;;53.53;19.92;;;;;;;0.01;100.00;93033.88;5030370;28;20049;-84
2022/01/31 01:43:35;;;;;;;37.42;14.05;;;;;;;-0.06;100.00;92997.50;5030303;28;20057;-85
2022/01/31 01:46:02;;;;;;;73.65;27.08;;;;;;;0.25;100.00;93032.41;5030413;28;20049;-85
2022/01/31 01:48:29;;;;;;;37.20;14.35;;;;;;;-0.21;100.00;92950.13;5029988;28;20055;-85
2022/01/31 01:50:56;;;;;;;28.92;9.82;;;;;;;0.16;100.00;93023.19;5030599;28;20057;-86
2022/01/31 01:53:25;;;;;;;23.40;8.90;;;;;;;-0.01;100.00;92998.66;5030071;28;20055;-85
2022/01/31 01:55:53;;;;;;;24.13;5.68;;;;;;;0.11;100.00;93019.41;5030184;28;20088;-85
2022/01/31 01:58:21;;;;;;;23.17;6.20;;;;;;;0.05;100.00;93002.31;5029533;28;20045;-85
2022/01/31 02:00:58;;;;;;;24.00;6.63;;;;;;;0.03;100.00;92991.56;5029536;28;20136;-86
2022/01/31 02:03:26;;;;;;;27.75;6.45;;;;;;;-0.10;100.00;93001.31;5029765;28;20053;-87
2022/01/31 02:05:53;;;;;;;38.83;6.97;;;;;;;0.13;100.00;93021.75;5029194;28;20049;-86
2022/01/31 02:08:21;;;;;;;43.88;6.88;;;;;;;0.15;100.00;93021.63;5029657;28;20055;-86
2022/01/31 02:10:49;;;;;;;47.00;7.70;;;;;;;0.02;100.00;93005.16;5029644;28;20136;-85
2022/01/31 02:13:17;;;;;;;48.75;7.95;;;;;;;-0.22;100.00;92983.88;5029512;28;20052;-86
2022/01/31 02:15:46;;;;;;;51.38;11.95;;;;;;;-0.64;100.00;92932.38;5029415;28;20414;-86
2022/01/31 02:18:13;;;;;;;39.10;7.72;;;;;;;-0.13;100.00;93007.44;5029325;28;20057;-87
2022/01/31 02:20:43;;;;;;;41.63;7.85;;;;;;;-0.81;100.00;92927.22;5029491;28;20471;-86
2022/01/31 02:23:12;;;;;;;28.95;6.18;;;;;;;0.02;100.00;93019.50;5028480;28;20064;-87
2022/01/31 02:25:53;;;;;;;32.42;5.55;;;;;;;-0.31;100.00;92998.19;5029548;28;20049;-87
2022/01/31 02:28:21;;;;;;;31.77;6.53;;;;;;;-0.74;100.00;92932.44;5029228;28;20053;-84
2022/01/31 02:30:49;;;;;;;22.20;5.15;;;;;;;-1.03;100.00;92900.72;5029688;28;20071;-85
2022/01/31 02:33:16;;;;;;;25.55;6.68;;;;;;;-0.19;100.00;93025.72;5029325;28;20059;-85
2022/01/31 02:35:44;;;;;;;18.98;3.90;;;;;;;-0.30;100.00;93002.28;5028961;28;20105;-85
2022/01/31 02:38:11;;;;;;;23.88;6.00;;;;;;;-0.77;100.00;92952.94;5029456;28;20049;-85
2022/01/31 02:40:38;;;;;;;16.50;4.60;;;;;;;-0.24;100.00;93043.03;5029369;28;20053;-87
2022/01/31 02:43:05;;;;;;;21.73;6.20;;;;;;;-0.65;100.00;92972.88;5029068;28;20520;-85
2022/01/31 02:45:33;;;;;;;26.20;5.85;;;;;;;-0.40;100.00;93009.16;5029358;28;20141;-86
2022/01/31 02:48:02;;;;;;;25.50;6.25;;;;;;;-0.24;100.00;93022.84;5029383;28;20127;-86
2022/01/31 02:50:29;;;;;;;41.15;7.22;;;;;;;-0.01;100.00;93033.22;5028853;28;20064;-85
2022/01/31 02:53:10;;;;;;;30.35;6.38;;;;;;;0.07;100.00;93037.53;5029341;28;20095;-87
2022/01/31 02:55:39;;;;;;;22.63;5.97;;;;;;;-0.26;100.00;92969.97;5029317;28;20068;-87
2022/01/31 02:58:06;;;;;;;49.47;16.58;;;;;;;-0.69;100.00;92916.88;5028780;28;20061;-85
2022/01/31 03:00:33;;;;;;;32.67;12.02;;;;;;;-0.14;100.00;92973.81;5029172;28;20046;-86
2022/01/31 03:03:00;;;;;;;27.30;9.35;;;;;;;0.14;100.00;93008.22;5028595;28;20064;-86
2022/01/31 03:05:27;;;;;;;22.85;7.15;;;;;;;0.36;100.00;93029.63;5029202;28;20053;-86
2022/01/31 03:07:53;;;;;;;21.00;6.75;;;;;;;-0.14;100.00;92960.38;5029174;28;20592;-86
2022/01/31 03:10:22;;;;;;;16.10;6.80;;;;;;;-0.17;100.00;92978.38;5029089;28;20371;-86
2022/01/31 03:12:50;;;;;;;16.55;6.57;;;;;;;-1.07;100.00;92859.09;5029049;28;20605;-89
2022/01/31 03:15:19;;;;;;;32.50;13.02;;;;;;;-0.25;100.00;92981.66;5028977;28;20137;-89
2022/01/31 03:17:50;;;;;;;33.25;13.40;;;;;;;-0.53;100.00;92916.19;5028626;28;20137;-89
2022/01/31 03:20:21;;;;;;;21.15;7.93;;;;;;;-0.53;100.00;92916.19;5028623;28;20061;-89
2022/01/31 03:22:50;;;;;;;19.70;6.93;;;;;;;0.24;100.00;93023.25;5028682;28;20390;-89
2022/01/31 03:25:19;;;;;;;29.63;10.95;;;;;;;0.30;100.00;93032.75;5028558;28;20136;-88
2022/01/31 03:27:49;;;;;;;14.90;5.53;;;;;;;-0.12;100.00;92995.59;5028929;28;20050;-87
2022/01/31 03:30:19;;;;;;;12.30;3.97;;;;;;;-0.18;99.67;92971.75;5028711;28;20050;-88
2022/01/31 03:32:47;;;;;;;12.15;4.40;;;;;;;0.25;100.00;93024.81;5028667;28;20061;-86
2022/01/31 03:35:15;;;;;;;11.63;4.75;;;;;;;-0.17;100.00;92948.09;5030527;28;20084;-86
2022/01/31 03:37:42;;;;;;;13.15;4.80;;;;;;;0.40;100.00;93014.94;5032317;28;20069;-86
2022/01/31 03:40:11;;;;;;;17.88;5.50;;;;;;;0.35;100.00;93017.94;5032323;28;20054;-85
2022/01/31 03:42:39;;;;;;;31.48;10.13;;;;;;;0.43;100.00;93026.47;5032293;28;20077;-86
2022/01/31 03:45:10;;;;;;;22.58;9.45;;;;;;;-0.06;100.00;92942.78;5032558;28;20058;-86
2022/01/31 03:47:44;;;;;;;26.73;9.38;;;;;;;0.51;100.00;93037.41;5032331;28;20053;-86
2022/01/31 03:50:12;;;;;;;25.15;9.27;;;;;;;0.45;99.75;93022.84;5031642;28;20088;-85
2022/01/31 03:52:39;;;;;;;15.48;6.70;;;;;;;0.42;98.83;93020.66;5031896;28;20053;-87
2022/01/31 03:55:07;;;;;;;11.55;3.85;;;;;;;-0.31;98.42;92919.16;5032218;28;20412;-85
2022/01/31 03:57:34;;;;;;;13.38;4.78;;;;;;;-0.18;98.23;92970.00;5032256;28;20052;-86
2022/01/31 04:00:04;;;;;;;10.02;4.38;;;;;;;0.17;99.07;93024.78;5031766;28;20049;-87
2022/01/31 04:02:32;;;;;;;9.80;4.65;;;;;;;-0.29;99.67;92957.63;5031609;28;20551;-86
2022/01/31 04:04:59;;;;;;;10.18;4.35;;;;;;;-0.33;98.40;92976.56;5032208;28;20461;-86
2022/01/31 04:07:26;;;;;;;12.27;3.72;;;;;;;-0.52;98.17;92964.94;5032190;28;20140;-87
2022/01/31 04:09:53;;;;;;;11.75;5.55;;;;;;;-0.47;99.81;92998.09;5031638;28;20425;-88
2022/01/31 04:12:20;;;;;;;17.33;4.28;;;;;;;-0.16;100.00;93038.03;5031724;28;20493;-88
2022/01/31 04:14:47;;;;;;;17.05;4.57;;;;;;;-0.24;100.00;93022.84;5031992;28;20085;-88
2022/01/31 04:17:18;;;;;;;15.38;4.28;;;;;;;-0.83;100.00;92951.78;5031839;28;20058;-88
2022/01/31 04:19:47;;;;;;;43.42;9.88;;;;;;;-1.29;100.00;92951.09;5031531;28;20505;-87
2022/01/31 04:22:17;;;;;;;25.38;5.82;;;;;;;-1.34;100.00;92936.41;5031790;28;20076;-88
2022/01/31 04:24:47;;;;;;;10.48;3.97;;;;;;;-0.89;100.00;93042.38;5031390;28;20457;-86
2022/01/31 04:27:18;;;;;;;13.88;3.35;;;;;;;-1.54;100.00;92953.34;5031218;28;20456;-87
2022/01/31 04:29:46;;;;;;;7.85;3.90;;;;;;;-1.84;100.00;92933.41;5031128;28;20057;-87
2022/01/31 04:32:13;;;;;;;7.53;2.85;;;;;;;-1.19;100.00;93041.75;5031852;28;20405;-86
2022/01/31 04:34:40;;;;;;;8.45;3.10;;;;;;;-1.30;100.00;93027.63;5031224;28;20136;-88
2022/01/31 04:37:10;;;;;;;8.25;3.78;;;;;;;-1.14;100.00;93047.97;5031178;28;20493;-87
2022/01/31 04:39:37;;;;;;;11.75;4.70;;;;;;;-1.17;100.00;93055.78;5031439;28;20140;-85
2022/01/31 04:42:04;;;;;;;13.48;5.97;;;;;;;-1.64;100.00;92988.69;5030882;28;20520;-88
2022/01/31 04:44:31;;;;;;;13.13;5.93;;;;;;;-1.66;100.00;92960.34;5031383;28;20400;-87
2022/01/31 04:46:58;;;;;;;11.40;6.35;;;;;;;-2.07;100.00;92867.53;5030194;28;20489;-87
2022/01/31 04:49:25;;;;;;;16.58;5.85;;;;;;;-0.96;100.00;93032.84;5028308;28;20085;-87
2022/01/31 04:51:52;;;;;;;17.02;6.20;;;;;;;-1.79;100.00;92882.63;5029456;28;20052;-88
2022/01/31 04:54:20;;;;;;;11.50;5.57;;;;;;;-0.72;100.00;93023.91;5030593;28;20408;-87
2022/01/31 04:56:47;;;;;;;13.10;5.95;;;;;;;-1.26;100.00;92931.44;5037622;28;20109;-86
2022/01/31 04:59:14;;;;;;;11.48;5.45;;;;;;;-0.42;100.00;93037.06;5038624;28;20501;-85
2022/01/31 05:01:43;;;;;;;17.20;6.90;;;;;;;-0.35;100.00;93037.28;5032877;28;20056;-86
2022/01/31 05:04:09;;;;;;;28.98;9.85;;;;;;;-0.88;100.00;92950.66;5030657;28;20057;-87
2022/01/31 05:06:39;;;;;;;26.75;11.23;;;;;;;-0.30;100.00;93036.81;5030239;28;20046;-87
2022/01/31 05:09:07;;;;;;;28.05;12.30;;;;;;;-0.33;100.00;93034.63;5030578;28;20049;-87
2022/01/31 05:11:35;;;;;;;21.35;10.15;;;;;;;-0.97;100.00;92943.00;5030207;28;20095;-86
2022/01/31 05:14:02;;;;;;;20.50;8.75;;;;;;;-0.81;100.00;92956.69;5030416;28;20067;-87
2022/01/31 05:16:29;;;;;;;19.30;9.10;;;;;;;-0.21;100.00;93023.31;5030622;28;20148;-86
2022/01/31 05:18:56;;;;;;;21.40;8.35;;;;;;;-0.99;100.00;92926.44;5030369;28;20045;-86
2022/01/31 05:21:23;;;;;;;27.17;9.73;;;;;;;-1.36;100.00;92871.03;5029891;28;20051;-86
2022/01/31 05:23:50;;;;;;;26.65;10.73;;;;;;;-0.44;100.00;93030.56;5030036;28;20085;-86
2022/01/31 05:26:17;;;;;;;22.35;9.15;;;;;;;-0.42;100.00;93028.69;5030126;28;20076;-86
2022/01/31 05:28:45;;;;;;;34.75;15.30;;;;;;;-1.09;100.00;92924.00;5030134;28;20053;-86
2022/01/31 05:31:12;;;;;;;43.40;20.15;;;;;;;-0.39;100.00;93017.50;5030153;28;20520;-86
2022/01/31 05:33:39;;;;;;;60.30;26.50;;;;;;;-0.28;100.00;93020.59;5030096;28;20046;-86
2022/01/31 05:36:07;;;;;;;70.07;32.17;;;;;;;-0.24;100.00;93023.59;5029834;28;20060;-86
2022/01/31 05:38:36;;;;;;;34.10;16.02;;;;;;;-1.32;100.00;92913.56;5029914;28;20493;-85
2022/01/31 05:41:06;;;;;;;59.47;28.00;;;;;;;-1.57;100.00;92900.75;5030078;28;20057;-85
2022/01/31 05:43:34;;;;;;;67.05;28.50;;;;;;;-1.53;100.00;92933.06;5029979;28;20049;-85
2022/01/31 05:46:02;;;;;;;60.38;26.92;;;;;;;-1.11;100.00;92994.72;5029799;28;20486;-85
2022/01/31 05:48:29;;;;;;;54.67;26.17;;;;;;;-1.82;100.00;92881.16;5029473;28;20060;-85
2022/01/31 05:50:56;;;;;;;73.20;31.92;;;;;;;-1.24;100.00;92959.78;5029944;28;20056;-85
2022/01/31 05:53:23;;;;;;;68.15;32.78;;;;;;;-1.40;100.00;92930.22;5029501;28;20050;-85
2022/01/31 05:55:50;;;;;;;64.68;31.30;;;;;;;-1.39;100.00;92903.28;5029791;28;20053;-85
2022/01/31 05:58:17;;;;;;;53.72;25.10;;;;;;;-0.46;100.00;93035.00;5029486;28;20120;-86
2022/01/31 06:00:44;;;;;;;41.67;21.50;;;;;;;-0.71;100.00;92981.81;5029547;28;20436;-86
2022/01/31 06:03:13;;;;;;;48.88;22.98;;;;;;;-0.87;100.00;92947.19;5029570;28;20064;-85
2022/01/31 06:05:40;;;;;;;36.95;16.60;;;;;;;-0.72;100.00;92967.63;5029573;28;20176;-85
2022/01/31 06:08:07;;;;;;;18.42;9.93;;;;;;;-1.13;100.00;92915.16;5028732;28;20049;-85
2022/01/31 06:10:41;;;;;;;17.98;7.80;;;;;;;-1.21;100.00;92929.28;5027237;28;20049;-84
2022/01/31 06:13:08;;;;;;;18.42;6.75;;;;;;;-1.30;100.00;92914.22;5029016;28;20049;-84
2022/01/31 06:15:35;;;;;;;21.08;8.27;;;;;;;-0.44;100.00;93023.81;5030059;28;20042;-84
2022/01/31 06:18:01;;;;;;;19.05;8.82;;;;;;;-0.40;100.00;93021.78;5029962;28;20057;-85
2022/01/31 06:20:30;;;;;;;52.47;25.90;;;;;;;-0.32;100.00;93043.75;5029737;28;20051;-84
2022/01/31 06:22:57;;;;;;;71.43;34.88;;;;;;;-0.63;100.00;92964.22;5029699;28;20480;-84
2022/01/31 06:25:23;;;;;;;58.88;29.00;;;;;;;-0.32;100.00;93016.00;5029704;28;20042;-84
2022/01/31 06:27:52;;;;;;;57.50;26.15;;;;;;;-0.61;100.00;92956.53;5029777;28;20058;-85
2022/01/31 06:30:19;;;;;;;61.63;29.63;;;;;;;-0.43;100.00;92974.13;5029831;28;20418;-86
2022/01/31 06:32:46;;;;;;;59.33;28.38;;;;;;;-0.25;100.00;92985.88;5030363;28;20049;-87
2022/01/31 06:35:13;;;;;;;54.78;25.27;;;;;;;-0.71;100.00;92917.03;5030141;28;20143;-86
2022/01/31 06:37:41;;;;;;;55.47;24.75;;;;;;;-0.05;100.00;93019.31;5030131;28;20140;-86
2022/01/31 06:40:09;;;;;;;54.53;26.85;;;;;;;-0.01;100.00;93023.91;5026965;28;20060;-86
2022/01/31 06:42:36;;;;;;;76.35;38.05;;;;;;;-0.39;100.00;92962.78;5007939;28;20486;-86
2022/01/31 06:45:04;;;;;;;91.35;40.38;;;;;;;-0.02;100.00;93012.25;5008627;28;20485;-86
2022/01/31 06:47:31;;;;;;;80.57;36.63;;;;;;;-0.73;100.00;92905.50;5010208;28;20050;-87
2022/01/31 06:49:59;;;;;;;57.50;30.73;;;;;;;0.08;100.00;93019.69;5009921;28;20507;-86
2022/01/31 06:52:26;;;;;;;51.30;27.63;;;;;;;0.08;100.00;93009.59;5010037;28;20140;-86
2022/01/31 06:54:55;;;;;;;53.17;27.85;;;;;;;0.11;100.00;93009.31;5010102;28;20474;-86
2022/01/31 06:57:24;;;;;;;56.95;27.30;;;;;;;-0.42;100.00;92913.41;5010150;28;20379;-86
2022/01/31 06:59:50;;;;;;;39.58;21.35;;;;;;;-0.21;100.00;92955.16;5010202;28;20046;-87
2022/01/31 07:02:17;;;;;;;30.83;16.02;;;;;;;0.26;99.50;93001.16;5009888;28;20050;-86
2022/01/31 07:04:44;;;;;;;34.78;16.65;;;;;;;-0.23;99.88;92903.25;5009787;28;20057;-86
2022/01/31 07:07:11;;;;;;;41.88;20.33;;;;;;;-0.17;98.76;92911.03;5009723;28;20054;-86
2022/01/31 07:09:39;;;;;;;61.25;29.45;;;;;;;0.51;98.63;92986.88;5010950;28;20081;-86
2022/01/31 07:12:12;;;;;;;67.82;32.78;;;;;;;0.54;99.36;92988.28;5013929;28;20084;-85
2022/01/31 07:14:38;;;;;;;77.53;36.00;;;;;;;0.05;98.78;92905.56;5013831;28;20045;-85
2022/01/31 07:17:09;;;;;;;91.32;45.45;;;;;;;0.26;98.51;92930.41;5013783;28;20058;-86
2022/01/31 07:19:38;;;;;;;122.18;56.42;;;;;;;0.44;97.25;92942.13;5013739;28;20091;-86
2022/01/31 07:22:09;;;;;;;49.95;23.33;;;;;;;0.64;97.42;92950.25;5013705;28;20049;-86
2022/01/31 07:24:46;;;;;;;53.78;24.98;;;;;;;0.48;96.48;92908.84;5013429;28;20109;-86
2022/01/31 07:27:15;;;;;;;41.25;18.20;;;;;;;0.48;95.31;92918.16;5013742;28;20046;-85
2022/01/31 07:29:43;;;;;;;31.75;18.75;;;;;;;0.35;95.12;92898.38;5013350;28;20046;-85
2022/01/31 07:32:11;;;;;;;43.35;20.60;;;;;;;0.95;94.78;92980.00;5013475;28;20085;-85
2022/01/31 07:34:40;;;;;;;39.47;22.77;;;;;;;0.31;94.71;92875.16;5013222;28;20505;-85
2022/01/31 07:37:07;;;;;;;37.17;19.73;;;;;;;0.43;94.27;92902.66;5013400;28;20057;-85
2022/01/31 07:39:34;;;;;;;43.42;22.27;;;;;;;0.09;94.06;92816.69;5013441;28;20152;-85
2022/01/31 07:42:01;;;;;;;43.45;22.38;;;;;;;1.08;93.85;92971.16;5013347;28;20068;-84
2022/01/31 07:44:29;;;;;;;41.92;21.98;;;;;;;1.21;93.32;92961.38;5012984;28;20080;-84
2022/01/31 07:46:56;;;;;;;34.00;15.30;;;;;;;0.86;93.31;92887.38;5013245;28;20061;-83
2022/01/31 07:49:23;;;;;;;25.30;11.73;;;;;;;1.57;92.92;92955.97;5012543;28;20113;-83
2022/01/31 07:51:50;;;;;;;24.67;11.07;;;;;;;1.32;91.76;92897.00;5013019;28;20046;-83
2022/01/31 07:54:17;;;;;;;18.15;8.48;;;;;;;1.90;90.58;92959.38;5012589;28;20049;-83
2022/01/31 07:56:44;;;;;;;17.13;8.18;;;;;;;2.02;89.32;92962.34;5012963;28;20054;-83
2022/01/31 07:59:11;;;;;;;22.25;9.90;;;;;;;1.48;88.68;92863.25;5012897;28;20108;-83
2022/01/31 08:01:39;;;;;;;22.45;10.05;;;;;;;2.30;88.38;92944.22;5013016;28;20128;-83
2022/01/31 08:04:07;;;;;;;15.90;6.65;;;;;;;1.73;87.08;92868.25;5012391;28;20050;-83
2022/01/31 08:06:34;;;;;;;15.02;5.45;;;;;;;2.20;86.08;92932.50;5012446;28;20517;-82
2022/01/31 08:09:01;;;;;;;10.48;3.60;;;;;;;1.93;86.50;92899.03;5012714;28;20053;-81
2022/01/31 08:11:32;;;;;;;10.82;5.03;;;;;;;1.88;87.13;92901.28;5012368;28;20050;-84
2022/01/31 08:14:00;;;;;;;12.35;6.13;;;;;;;2.49;87.21;92951.38;5012384;28;20485;-83
2022/01/31 08:16:27;;;;;;;9.95;4.30;;;;;;;2.64;85.01;92941.31;5012329;28;20057;-83
2022/01/31 08:18:55;;;;;;;8.77;3.55;;;;;;;2.44;82.21;92881.88;5012449;28;20057;-83
2022/01/31 08:21:23;;;;;;;7.32;3.42;;;;;;;2.92;83.52;92910.38;5012505;28;20050;-83
2022/01/31 08:23:51;;;;;;;4.80;2.15;;;;;;;2.56;83.06;92857.69;5012400;28;20053;-83
2022/01/31 08:26:18;;;;;;;5.18;2.60;;;;;;;2.97;74.38;92916.69;5012389;28;20588;-83
2022/01/31 08:28:51;;;;;;;9.18;4.00;;;;;;;2.89;75.17;92902.31;5012543;28;20103;-82
2022/01/31 08:31:22;;;;;;;7.72;3.80;;;;;;;2.74;80.90;92892.13;5009077;28;20054;-82
2022/01/31 08:34:03;;;;;;;8.35;2.80;;;;;;;2.68;82.17;92921.47;5011048;28;20577;-82
2022/01/31 08:36:34;;;;;;;14.48;6.13;;;;;;;2.69;81.58;92910.41;5011955;28;20096;-82
2022/01/31 08:39:02;;;;;;;9.23;4.53;;;;;;;2.63;81.51;92919.47;5012085;28;20056;-82
2022/01/31 08:41:29;;;;;;;7.82;3.67;;;;;;;2.47;80.14;92922.09;5011924;28;20494;-82
2022/01/31 08:43:56;;;;;;;7.90;3.10;;;;;;;2.59;79.95;92928.34;5012139;28;20045;-82
2022/01/31 08:46:23;;;;;;;13.52;6.22;;;;;;;2.63;79.10;92927.06;5011197;28;20057;-82
2022/01/31 08:48:50;;;;;;;19.13;8.45;;;;;;;2.72;80.33;92927.03;5011396;28;20124;-82
2022/01/31 08:51:17;;;;;;;14.10;5.97;;;;;;;2.83;81.03;92923.31;5011039;28;20041;-82
2022/01/31 08:53:48;;;;;;;20.45;11.45;;;;;;;2.85;76.74;92921.38;5010962;28;20042;-82
2022/01/31 08:56:15;;;;;;;9.25;3.67;;;;;;;2.98;77.80;92924.16;5011533;28;20061;-82
2022/01/31 08:58:46;;;;;;;13.15;5.50;;;;;;;2.99;79.65;92925.72;5010849;28;20054;-82
2022/01/31 09:01:17;;;;;;;10.07;5.65;;;;;;;3.03;79.54;92916.03;5011173;28;20142;-83
2022/01/31 09:04:00;;;;;;;10.98;6.20;;;;;;;3.05;80.17;92914.88;5010774;28;20511;-82
2022/01/31 09:06:30;;;;;;;10.45;5.80;;;;;;;2.86;77.96;92879.84;5011370;28;20046;-82
2022/01/31 09:08:59;;;;;;;8.75;3.90;;;;;;;3.10;78.80;92901.69;5010787;28;20050;-82
2022/01/31 09:11:26;;;;;;;12.40;5.82;;;;;;;3.24;78.61;92899.38;5010730;28;20041;-82
2022/01/31 09:13:53;;;;;;;8.90;3.10;;;;;;;3.28;79.01;92901.38;5010563;28;20049;-82
2022/01/31 09:16:22;;;;;;;13.07;9.82;;;;;;;3.31;77.89;92890.88;5010964;28;20057;-82
2022/01/31 09:18:49;;;;;;;12.70;6.05;;;;;;;3.30;77.68;92896.94;5010864;28;20049;-82
2022/01/31 09:21:16;;;;;;;12.23;4.30;;;;;;;3.18;77.40;92899.09;5010417;28;20050;-81
2022/01/31 09:23:43;;;;;;;11.27;3.85;;;;;;;3.09;78.29;92910.25;5010487;28;20053;-81
2022/01/31 09:26:11;;;;;;;7.82;3.63;;;;;;;3.02;79.04;92894.16;5010436;28;20050;-81
2022/01/31 09:28:38;;;;;;;11.25;6.40;;;;;;;2.96;77.98;92884.69;5010394;28;20396;-80
2022/01/31 09:31:05;;;;;;;9.43;4.35;;;;;;;2.98;79.10;92885.28;5010574;28;20053;-79
2022/01/31 09:33:32;;;;;;;13.18;5.60;;;;;;;2.77;78.97;92853.72;5010398;28;20136;-80
2022/01/31 09:35:59;;;;;;;13.90;7.20;;;;;;;3.04;77.82;92879.53;5009313;28;20054;-80
2022/01/31 09:38:26;;;;;;;11.88;4.25;;;;;;;3.01;77.18;92880.66;5008893;28;20050;-81
2022/01/31 09:40:54;;;;;;;17.65;9.52;;;;;;;2.99;78.65;92874.19;5008848;28;20052;-80
2022/01/31 09:46:31;;;;;;;9.60;4.85;;;;;;;2.80;78.74;92828.84;5006273;28;20052;-80
2022/01/31 09:48:58;;;;;;;9.27;4.10;;;;;;;2.91;80.89;92845.38;5029825;28;20081;-80
2022/01/31 09:51:27;;;;;;;13.10;6.30;;;;;;;2.78;79.59;92823.13;5029877;28;20053;-80
2022/01/31 09:53:56;;;;;;;10.38;4.88;;;;;;;2.86;80.05;92814.66;5030523;28;20054;-80
2022/01/31 09:56:26;;;;;;;9.50;4.15;;;;;;;3.07;79.96;92828.44;5030598;28;20147;-80
2022/01/31 09:58:55;;;;;;;7.63;3.67;;;;;;;3.12;77.31;92830.47;5030462;28;20053;-80
2022/01/31 10:01:26;;;;;;;24.90;13.77;;;;;;;3.25;77.54;92820.50;5029712;28;20046;-81
2022/01/31 10:03:56;;;;;;;37.30;20.23;;;;;;;3.32;77.92;92805.34;5029779;28;20052;-81
2022/01/31 10:06:25;;;;;;;44.95;23.15;;;;;;;3.56;74.73;92800.97;5029639;28;20053;-81
2022/01/31 10:09:05;;;;;;;11.80;6.50;;;;;;;3.40;75.11;92764.66;5029834;28;20394;-81
2022/01/31 10:11:41;;;;;;;10.43;4.65;;;;;;;3.57;76.37;92787.31;5029313;28;20049;-81
2022/01/31 10:16:59;;;;;;;8.07;3.20;;;;;;;3.25;76.28;92757.06;5029497;28;20057;-81
2022/01/31 10:19:26;;;;;;;12.00;4.35;;;;;;;3.14;76.55;92737.19;5029649;28;20058;-82
2022/01/31 10:21:57;;;;;;;10.73;4.93;;;;;;;3.06;76.88;92710.91;5029272;28;20049;-82
2022/01/31 10:24:25;;;;;;;6.93;3.33;;;;;;;3.38;75.16;92760.72;5028712;28;20145;-83
2022/01/31 10:26:52;;;;;;;15.57;8.10;;;;;;;3.23;74.59;92728.50;5026807;28;20056;-83
2022/01/31 10:29:23;;;;;;;21.05;9.50;;;;;;;2.98;74.53;92705.94;5028995;28;20567;-83
2022/01/31 10:31:56;;;;;;;9.60;3.50;;;;;;;3.23;75.54;92730.25;5028079;28;20120;-84
2022/01/31 10:34:25;;;;;;;21.42;10.90;;;;;;;3.11;74.52;92719.75;5028610;28;20057;-84
2022/01/31 10:36:53;;;;;;;13.30;5.28;;;;;;;3.17;75.61;92726.66;5028754;28;20049;-84
2022/01/31 10:53:59;;;;;;;30.73;12.82;;;;;;;3.02;76.11;92675.94;5014057;28;20521;-83
2022/01/31 10:56:36;;;;;;;95.68;39.03;;;;;;;3.04;74.56;92662.09;5014486;28;20063;-83
2022/01/31 10:59:06;;;;;;;39.15;16.83;;;;;;;3.07;74.44;92668.56;5013605;28;20100;-83
2022/01/31 11:01:37;;;;;;;24.00;10.25;;;;;;;2.77;75.76;92611.03;5022257;28;20065;-84
2022/01/31 11:04:05;;;;;;;13.38;6.13;;;;;;;2.90;72.99;92642.59;5032935;28;20049;-83
2022/01/31 11:06:32;;;;;;;16.15;8.23;;;;;;;2.80;74.17;92641.13;5033156;28;20068;-84
2022/01/31 11:09:07;;;;;;;19.48;9.38;;;;;;;2.70;73.24;92619.53;5032934;28;20064;-85
2022/01/31 11:11:35;;;;;;;12.75;4.38;;;;;;;2.94;74.26;92656.50;5033005;28;20084;-81
2022/01/31 11:14:03;;;;;;;13.55;5.55;;;;;;;2.98;74.99;92654.41;5031846;28;20050;-81
2022/01/31 11:16:31;;;;;;;138.88;52.60;;;;;;;3.01;73.93;92643.91;5032333;28;20081;-82
2022/01/31 11:19:06;;;;;;;88.90;35.85;;;;;;;3.05;74.42;92634.97;5032454;28;20046;-81
2022/01/31 11:21:35;;;;;;;27.42;11.45;;;;;;;2.97;73.69;92635.88;5030896;28;20047;-81
2022/01/31 11:24:03;;;;;;;53.47;22.33;;;;;;;3.03;75.06;92641.97;5032412;28;20049;-81
2022/01/31 11:26:37;;;;;;;20.98;9.15;;;;;;;2.92;74.45;92611.00;5032944;28;20053;-81
2022/01/31 11:29:06;;;;;;;95.55;41.88;;;;;;;3.02;72.88;92607.41;5032419;28;20089;-82
2022/01/31 11:31:36;;;;;;;35.42;16.02;;;;;;;3.27;74.42;92633.28;5029710;28;20586;-82
2022/01/31 11:34:05;;;;;;;15.43;7.25;;;;;;;3.08;74.04;92601.63;5032560;28;20045;-82
2022/01/31 11:36:33;;;;;;;64.78;28.73;;;;;;;3.28;72.63;92624.69;5032422;28;20049;-82
2022/01/31 11:39:01;;;;;;;67.90;30.98;;;;;;;3.16;72.96;92582.97;5032580;28;20049;-81
2022/01/31 11:41:28;;;;;;;24.45;10.65;;;;;;;3.31;73.02;92604.03;5032598;28;20049;-82
2022/01/31 11:44:02;;;;;;;43.58;18.52;;;;;;;3.10;72.67;92563.41;5033253;28;20052;-82
2022/01/31 11:46:30;;;;;;;51.97;20.80;;;;;;;3.36;72.63;92592.53;5033044;28;20049;-81
2022/01/31 11:48:57;;;;;;;26.90;11.57;;;;;;;3.32;72.02;92582.75;5032910;28;20057;-81